Boardwalk — ZGAQ7 — position and weather

sailwx.info

Track history (hours):
 
Tides and Currents Weather Stations Pressure Air Temp Water Temp Dewpoint Dewpoint Depression Visibility Wind Speed Wind Dir Waves Ship Positions

Boardwalk

Last reported at 2014-Jul-22 14:25 UTC. Time now 2014-Jul-22 15:01 UTC.
Position N 26°10' W 080°06'.

Length 50 m; draft 2.7 m.

Type: Pleasure craft. MMSI: 319031900.

Date/timePositionNaut miles runAvg speedWind from/ knotsBaromVisibWave heightAir tempDewpointWater temp
2014-Jul-22 14:25N 26°10' W 080°06'0 0.0
2014-Jul-22 13:25N 26°10' W 080°06'0 0.0
2014-Jul-22 12:28N 26°10' W 080°06'0 0.0
2014-Jul-22 11:28N 26°10' W 080°06'0 0.0
2014-Jul-22 10:28N 26°10' W 080°06'0 0.0
2014-Jul-22 09:31N 26°10' W 080°06'0 0.0
2014-Jul-22 08:31N 26°10' W 080°06'2 1.8
2014-Jul-22 07:33N 26°08' W 080°07'2 2.5
2014-Jul-22 06:33N 26°06' W 080°05'1615.7
2014-Jul-22 05:33N 26°20' W 079°55'1312.8
2014-Jul-22 04:33N 26°30' W 079°48'  
2014-Jul-17 04:19N 43°21' W 070°28'  
2014-Jul-14 02:32N 41°18' W 069°18'1111.6
2014-Jul-14 01:33N 41°08' W 069°11'1211.5
2014-Jul-14 00:33N 40°58' W 069°04'10 9.5
2014-Jul-13 23:33N 40°49' W 069°00'7 7.1
2014-Jul-13 22:33N 40°42' W 069°02'7 6.9
2014-Jul-13 21:33N 40°36' W 069°06'10 9.9
2014-Jul-13 20:33N 40°29' W 069°16'1010.3
2014-Jul-13 19:34N 40°26' W 069°29'1110.7
2014-Jul-13 18:34N 40°24' W 069°42'1111.3
2014-Jul-13 17:33N 40°21' W 069°57'1111.2
2014-Jul-13 16:34N 40°17' W 070°10'1111.2
2014-Jul-13 15:34N 40°14' W 070°25'1110.9
2014-Jul-13 14:33N 40°11' W 070°39'1110.9
2014-Jul-13 13:34N 40°09' W 070°52'1010.3
2014-Jul-13 12:34N 40°06' W 071°05'1110.8
2014-Jul-13 11:33N 40°02' W 071°19'10 9.8
2014-Jul-13 10:33N 39°60' W 071°31'10 9.7
2014-Jul-13 09:34N 39°57' W 071°43'1110.5
2014-Jul-13 08:33N 39°54' W 071°56'1110.9
2014-Jul-13 07:33N 39°51' W 072°10'1211.5
2014-Jul-13 06:33N 39°48' W 072°24'1110.9
2014-Jul-13 05:33N 39°44' W 072°38'1211.7
2014-Jul-13 04:33N 39°41' W 072°52'9 9.5
2014-Jul-13 03:33N 39°38' W 073°04'1414.1
2014-Jul-13 02:33N 39°34' W 073°22'1110.8
2014-Jul-13 01:33N 39°32' W 073°35'10 9.9
2014-Jul-13 00:33N 39°29' W 073°48'1111.1
2014-Jul-12 23:32N 39°26' W 074°01'1411.7
2014-Jul-12 22:21N 39°21' W 074°18'6 7.4
2014-Jul-12 21:33N 39°23' W 074°26'0 0.0
2014-Jul-12 20:22N 39°23' W 074°26'0 0.0
2014-Jul-12 19:28N 39°23' W 074°26'0 0.0
2014-Jul-12 18:13N 39°23' W 074°26'0 0.0
2014-Jul-12 17:13N 39°23' W 074°26'0 0.0
2014-Jul-12 16:31N 39°23' W 074°26'0 0.0
2014-Jul-12 15:31N 39°23' W 074°26'  
Track history (hours):
 
Tides and Currents Weather Stations Pressure Air Temp Water Temp Dewpoint Dewpoint Depression Visibility Wind Speed Wind Dir Waves Ship Positions

Boardwalk

Last reported at 2014-Jul-22 14:25 UTC. Time now 2014-Jul-22 15:01 UTC.
Position N 26°10' W 080°06'.

Length 50 m; draft 2.7 m.

Type: Pleasure craft. MMSI: 319031900.

Date/timePositionNaut miles runAvg speedWind from/ knotsBaromVisibWave heightAir tempDewpointWater temp
2014-Jul-22 14:25N 26°10' W 080°06'0 0.0
2014-Jul-22 13:25N 26°10' W 080°06'0 0.0
2014-Jul-22 12:28N 26°10' W 080°06'0 0.0
2014-Jul-22 11:28N 26°10' W 080°06'0 0.0
2014-Jul-22 10:28N 26°10' W 080°06'0 0.0
2014-Jul-22 09:31N 26°10' W 080°06'0 0.0
2014-Jul-22 08:31N 26°10' W 080°06'2 1.8
2014-Jul-22 07:33N 26°08' W 080°07'2 2.5
2014-Jul-22 06:33N 26°06' W 080°05'1615.7
2014-Jul-22 05:33N 26°20' W 079°55'1312.8
2014-Jul-22 04:33N 26°30' W 079°48'  
2014-Jul-17 04:19N 43°21' W 070°28'  
2014-Jul-14 02:32N 41°18' W 069°18'1111.6
2014-Jul-14 01:33N 41°08' W 069°11'1211.5
2014-Jul-14 00:33N 40°58' W 069°04'10 9.5
2014-Jul-13 23:33N 40°49' W 069°00'7 7.1
2014-Jul-13 22:33N 40°42' W 069°02'7 6.9
2014-Jul-13 21:33N 40°36' W 069°06'10 9.9
2014-Jul-13 20:33N 40°29' W 069°16'1010.3
2014-Jul-13 19:34N 40°26' W 069°29'1110.7
2014-Jul-13 18:34N 40°24' W 069°42'1111.3
2014-Jul-13 17:33N 40°21' W 069°57'1111.2
2014-Jul-13 16:34N 40°17' W 070°10'1111.2
2014-Jul-13 15:34N 40°14' W 070°25'1110.9
2014-Jul-13 14:33N 40°11' W 070°39'1110.9
2014-Jul-13 13:34N 40°09' W 070°52'1010.3
2014-Jul-13 12:34N 40°06' W 071°05'1110.8
2014-Jul-13 11:33N 40°02' W 071°19'10 9.8
2014-Jul-13 10:33N 39°60' W 071°31'10 9.7
2014-Jul-13 09:34N 39°57' W 071°43'1110.5
2014-Jul-13 08:33N 39°54' W 071°56'1110.9
2014-Jul-13 07:33N 39°51' W 072°10'1211.5
2014-Jul-13 06:33N 39°48' W 072°24'1110.9
2014-Jul-13 05:33N 39°44' W 072°38'1211.7
2014-Jul-13 04:33N 39°41' W 072°52'9 9.5
2014-Jul-13 03:33N 39°38' W 073°04'1414.1
2014-Jul-13 02:33N 39°34' W 073°22'1110.8
2014-Jul-13 01:33N 39°32' W 073°35'10 9.9
2014-Jul-13 00:33N 39°29' W 073°48'1111.1
2014-Jul-12 23:32N 39°26' W 074°01'1411.7
2014-Jul-12 22:21N 39°21' W 074°18'6 7.4
2014-Jul-12 21:33N 39°23' W 074°26'0 0.0
2014-Jul-12 20:22N 39°23' W 074°26'0 0.0
2014-Jul-12 19:28N 39°23' W 074°26'0 0.0
2014-Jul-12 18:13N 39°23' W 074°26'0 0.0
2014-Jul-12 17:13N 39°23' W 074°26'0 0.0
2014-Jul-12 16:31N 39°23' W 074°26'0 0.0
2014-Jul-12 15:31N 39°23' W 074°26'  

Dump ship's entire track history